sensor_id;sensor_type;location;lat;lon;timestamp;P1;durP1;ratioP1;P2;durP2;ratioP2
28427;SDS011;15662;49.128;8.520;2023-05-02T00:02:26;4.68;;;4.22;;
28427;SDS011;15662;49.128;8.520;2023-05-02T00:04:54;5.30;;;4.43;;
28427;SDS011;15662;49.128;8.520;2023-05-02T00:07:22;4.50;;;4.10;;
28427;SDS011;15662;49.128;8.520;2023-05-02T00:09:50;4.35;;;3.95;;
28427;SDS011;15662;49.128;8.520;2023-05-02T00:12:18;4.20;;;3.78;;
28427;SDS011;15662;49.128;8.520;2023-05-02T00:14:46;4.88;;;4.30;;
28427;SDS011;15662;49.128;8.520;2023-05-02T00:17:17;4.68;;;4.20;;
28427;SDS011;15662;49.128;8.520;2023-05-02T00:19:46;4.28;;;3.97;;
28427;SDS011;15662;49.128;8.520;2023-05-02T00:22:14;4.50;;;4.10;;
28427;SDS011;15662;49.128;8.520;2023-05-02T00:24:41;4.20;;;3.90;;
28427;SDS011;15662;49.128;8.520;2023-05-02T00:27:09;4.53;;;4.03;;
28427;SDS011;15662;49.128;8.520;2023-05-02T00:29:37;4.40;;;4.10;;
28427;SDS011;15662;49.128;8.520;2023-05-02T00:32:05;4.70;;;4.20;;
28427;SDS011;15662;49.128;8.520;2023-05-02T00:34:33;4.60;;;4.20;;
28427;SDS011;15662;49.128;8.520;2023-05-02T00:37:01;5.35;;;4.55;;
28427;SDS011;15662;49.128;8.520;2023-05-02T00:39:29;4.10;;;3.80;;
28427;SDS011;15662;49.128;8.520;2023-05-02T00:41:57;4.35;;;3.70;;
28427;SDS011;15662;49.128;8.520;2023-05-02T00:44:26;4.65;;;4.25;;
28427;SDS011;15662;49.128;8.520;2023-05-02T00:46:55;4.32;;;4.03;;
28427;SDS011;15662;49.128;8.520;2023-05-02T00:49:23;4.10;;;3.80;;
28427;SDS011;15662;49.128;8.520;2023-05-02T00:51:52;4.35;;;4.05;;
28427;SDS011;15662;49.128;8.520;2023-05-02T00:54:20;4.80;;;4.13;;
28427;SDS011;15662;49.128;8.520;2023-05-02T00:56:48;4.60;;;4.20;;
28427;SDS011;15662;49.128;8.520;2023-05-02T00:59:16;4.32;;;4.03;;
28427;SDS011;15662;49.128;8.520;2023-05-02T01:02:04;4.13;;;3.83;;
28427;SDS011;15662;49.128;8.520;2023-05-02T01:05:08;4.53;;;4.22;;
28427;SDS011;15662;49.128;8.520;2023-05-02T01:10:31;4.78;;;4.38;;
28427;SDS011;15662;49.128;8.520;2023-05-02T01:13:04;4.40;;;4.10;;
28427;SDS011;15662;49.128;8.520;2023-05-02T01:15:39;4.85;;;4.50;;
28427;SDS011;15662;49.128;8.520;2023-05-02T01:18:12;5.85;;;4.15;;
28427;SDS011;15662;49.128;8.520;2023-05-02T01:20:45;4.50;;;4.20;;
28427;SDS011;15662;49.128;8.520;2023-05-02T01:23:16;4.50;;;4.18;;
28427;SDS011;15662;49.128;8.520;2023-05-02T01:25:52;4.53;;;4.22;;
28427;SDS011;15662;49.128;8.520;2023-05-02T01:28:57;4.80;;;4.40;;
28427;SDS011;15662;49.128;8.520;2023-05-02T01:31:34;5.07;;;4.25;;
28427;SDS011;15662;49.128;8.520;2023-05-02T01:34:07;5.03;;;4.55;;
28427;SDS011;15662;49.128;8.520;2023-05-02T01:36:39;4.60;;;4.30;;
28427;SDS011;15662;49.128;8.520;2023-05-02T01:39:11;4.80;;;4.38;;
28427;SDS011;15662;49.128;8.520;2023-05-02T01:41:45;5.80;;;4.50;;
28427;SDS011;15662;49.128;8.520;2023-05-02T01:44:21;4.28;;;3.97;;
28427;SDS011;15662;49.128;8.520;2023-05-02T01:46:50;4.82;;;4.43;;
28427;SDS011;15662;49.128;8.520;2023-05-02T01:49:21;4.30;;;4.00;;
28427;SDS011;15662;49.128;8.520;2023-05-02T01:54:20;5.03;;;4.25;;
28427;SDS011;15662;49.128;8.520;2023-05-02T01:56:50;4.53;;;4.15;;
28427;SDS011;15662;49.128;8.520;2023-05-02T01:59:21;4.20;;;3.90;;
28427;SDS011;15662;49.128;8.520;2023-05-02T02:01:50;4.47;;;4.05;;
28427;SDS011;15662;49.128;8.520;2023-05-02T02:04:19;4.40;;;4.10;;
28427;SDS011;15662;49.128;8.520;2023-05-02T02:06:49;5.07;;;3.92;;
28427;SDS011;15662;49.128;8.520;2023-05-02T02:09:24;4.18;;;3.88;;
28427;SDS011;15662;49.128;8.520;2023-05-02T02:11:56;4.28;;;3.97;;
28427;SDS011;15662;49.128;8.520;2023-05-02T02:14:33;4.38;;;3.83;;
28427;SDS011;15662;49.128;8.520;2023-05-02T02:17:08;4.65;;;4.25;;
28427;SDS011;15662;49.128;8.520;2023-05-02T02:19:41;4.68;;;4.25;;
28427;SDS011;15662;49.128;8.520;2023-05-02T02:22:12;5.00;;;4.53;;
28427;SDS011;15662;49.128;8.520;2023-05-02T02:24:41;4.32;;;4.03;;
28427;SDS011;15662;49.128;8.520;2023-05-02T02:27:10;5.57;;;4.40;;
28427;SDS011;15662;49.128;8.520;2023-05-02T02:29:38;4.50;;;4.15;;
28427;SDS011;15662;49.128;8.520;2023-05-02T02:32:06;4.65;;;4.25;;
28427;SDS011;15662;49.128;8.520;2023-05-02T02:34:34;4.68;;;4.28;;
28427;SDS011;15662;49.128;8.520;2023-05-02T02:37:19;4.38;;;4.07;;
28427;SDS011;15662;49.128;8.520;2023-05-02T02:42:42;4.63;;;4.22;;
28427;SDS011;15662;49.128;8.520;2023-05-02T02:45:16;7.32;;;4.13;;
28427;SDS011;15662;49.128;8.520;2023-05-02T02:48:10;5.10;;;4.60;;
28427;SDS011;15662;49.128;8.520;2023-05-02T02:51:07;4.80;;;4.40;;
28427;SDS011;15662;49.128;8.520;2023-05-02T02:57:05;4.43;;;4.13;;
28427;SDS011;15662;49.128;8.520;2023-05-02T02:59:58;4.63;;;4.22;;
28427;SDS011;15662;49.128;8.520;2023-05-02T03:02:40;5.10;;;4.65;;
28427;SDS011;15662;49.128;8.520;2023-05-02T03:05:09;4.78;;;4.38;;
28427;SDS011;15662;49.128;8.520;2023-05-02T03:07:37;5.05;;;4.47;;
28427;SDS011;15662;49.128;8.520;2023-05-02T03:10:06;4.93;;;4.53;;
28427;SDS011;15662;49.128;8.520;2023-05-02T03:12:36;4.97;;;4.53;;
28427;SDS011;15662;49.128;8.520;2023-05-02T03:15:19;4.63;;;4.20;;
28427;SDS011;15662;49.128;8.520;2023-05-02T03:18:26;5.10;;;4.60;;
28427;SDS011;15662;49.128;8.520;2023-05-02T03:20:54;4.95;;;4.55;;
28427;SDS011;15662;49.128;8.520;2023-05-02T03:23:23;5.03;;;4.47;;
28427;SDS011;15662;49.128;8.520;2023-05-02T03:25:53;4.53;;;4.20;;
28427;SDS011;15662;49.128;8.520;2023-05-02T03:28:23;5.13;;;4.50;;
28427;SDS011;15662;49.128;8.520;2023-05-02T03:30:52;4.43;;;4.00;;
28427;SDS011;15662;49.128;8.520;2023-05-02T03:33:21;4.65;;;4.28;;
28427;SDS011;15662;49.128;8.520;2023-05-02T03:35:49;5.40;;;4.90;;
28427;SDS011;15662;49.128;8.520;2023-05-02T03:38:17;4.78;;;4.47;;
28427;SDS011;15662;49.128;8.520;2023-05-02T03:40:48;5.15;;;4.75;;
28427;SDS011;15662;49.128;8.520;2023-05-02T03:43:15;5.55;;;5.03;;
28427;SDS011;15662;49.128;8.520;2023-05-02T03:45:44;6.72;;;5.07;;
28427;SDS011;15662;49.128;8.520;2023-05-02T03:48:15;5.95;;;4.95;;
28427;SDS011;15662;49.128;8.520;2023-05-02T03:50:43;7.47;;;4.93;;
28427;SDS011;15662;49.128;8.520;2023-05-02T03:53:11;6.90;;;5.03;;
28427;SDS011;15662;49.128;8.520;2023-05-02T03:55:48;5.53;;;5.03;;
28427;SDS011;15662;49.128;8.520;2023-05-02T03:58:23;5.53;;;5.03;;
28427;SDS011;15662;49.128;8.520;2023-05-02T04:00:52;5.57;;;4.90;;
28427;SDS011;15662;49.128;8.520;2023-05-02T04:03:21;4.97;;;4.57;;
28427;SDS011;15662;49.128;8.520;2023-05-02T04:05:50;6.88;;;4.80;;
28427;SDS011;15662;49.128;8.520;2023-05-02T04:08:18;7.80;;;5.80;;
28427;SDS011;15662;49.128;8.520;2023-05-02T04:10:46;5.45;;;5.05;;
28427;SDS011;15662;49.128;8.520;2023-05-02T04:13:18;5.18;;;4.78;;
28427;SDS011;15662;49.128;8.520;2023-05-02T04:15:48;5.40;;;4.85;;
28427;SDS011;15662;49.128;8.520;2023-05-02T04:18:19;5.65;;;5.15;;
28427;SDS011;15662;49.128;8.520;2023-05-02T04:20:47;5.22;;;4.82;;
28427;SDS011;15662;49.128;8.520;2023-05-02T04:23:18;5.50;;;5.00;;
28427;SDS011;15662;49.128;8.520;2023-05-02T04:25:52;7.13;;;5.60;;
28427;SDS011;15662;49.128;8.520;2023-05-02T04:28:26;6.65;;;5.22;;
28427;SDS011;15662;49.128;8.520;2023-05-02T04:30:54;5.55;;;5.05;;
28427;SDS011;15662;49.128;8.520;2023-05-02T04:33:24;5.10;;;4.70;;
28427;SDS011;15662;49.128;8.520;2023-05-02T04:35:53;6.75;;;5.18;;
28427;SDS011;15662;49.128;8.520;2023-05-02T04:38:22;4.80;;;4.40;;
28427;SDS011;15662;49.128;8.520;2023-05-02T04:40:50;6.18;;;5.10;;
28427;SDS011;15662;49.128;8.520;2023-05-02T04:43:24;5.75;;;5.25;;
28427;SDS011;15662;49.128;8.520;2023-05-02T04:45:57;5.40;;;5.00;;
28427;SDS011;15662;49.128;8.520;2023-05-02T04:48:32;6.25;;;5.50;;
28427;SDS011;15662;49.128;8.520;2023-05-02T04:51:00;6.70;;;6.05;;
28427;SDS011;15662;49.128;8.520;2023-05-02T04:53:29;6.65;;;6.05;;
28427;SDS011;15662;49.128;8.520;2023-05-02T04:55:57;7.30;;;6.60;;
28427;SDS011;15662;49.128;8.520;2023-05-02T04:58:26;6.60;;;5.95;;
28427;SDS011;15662;49.128;8.520;2023-05-02T05:01:00;6.50;;;5.90;;
28427;SDS011;15662;49.128;8.520;2023-05-02T05:03:28;6.10;;;5.60;;
28427;SDS011;15662;49.128;8.520;2023-05-02T05:05:57;6.80;;;6.10;;
28427;SDS011;15662;49.128;8.520;2023-05-02T05:08:26;6.38;;;5.65;;
28427;SDS011;15662;49.128;8.520;2023-05-02T05:10:55;6.28;;;5.78;;
28427;SDS011;15662;49.128;8.520;2023-05-02T05:13:24;8.38;;;5.70;;
28427;SDS011;15662;49.128;8.520;2023-05-02T05:15:52;5.63;;;5.13;;
28427;SDS011;15662;49.128;8.520;2023-05-02T05:18:24;6.25;;;5.75;;
28427;SDS011;15662;49.128;8.520;2023-05-02T05:20:52;6.90;;;5.53;;
28427;SDS011;15662;49.128;8.520;2023-05-02T05:23:20;5.88;;;5.38;;
28427;SDS011;15662;49.128;8.520;2023-05-02T05:25:48;6.07;;;5.47;;
28427;SDS011;15662;49.128;8.520;2023-05-02T05:28:18;11.30;;;5.47;;
28427;SDS011;15662;49.128;8.520;2023-05-02T05:30:46;6.22;;;5.30;;
28427;SDS011;15662;49.128;8.520;2023-05-02T05:33:18;5.47;;;4.97;;
28427;SDS011;15662;49.128;8.520;2023-05-02T05:35:46;5.88;;;5.32;;
28427;SDS011;15662;49.128;8.520;2023-05-02T05:38:14;5.93;;;5.38;;
28427;SDS011;15662;49.128;8.520;2023-05-02T05:40:44;5.53;;;5.00;;
28427;SDS011;15662;49.128;8.520;2023-05-02T05:43:15;6.30;;;5.70;;
28427;SDS011;15662;49.128;8.520;2023-05-02T05:45:42;5.93;;;5.32;;
28427;SDS011;15662;49.128;8.520;2023-05-02T05:48:11;6.50;;;4.97;;
28427;SDS011;15662;49.128;8.520;2023-05-02T05:50:43;6.05;;;5.47;;
28427;SDS011;15662;49.128;8.520;2023-05-02T05:53:12;6.50;;;5.15;;
28427;SDS011;15662;49.128;8.520;2023-05-02T05:55:42;5.78;;;5.28;;
28427;SDS011;15662;49.128;8.520;2023-05-02T05:58:09;5.65;;;5.15;;
28427;SDS011;15662;49.128;8.520;2023-05-02T06:00:38;6.05;;;5.47;;
28427;SDS011;15662;49.128;8.520;2023-05-02T06:03:06;5.65;;;5.15;;
28427;SDS011;15662;49.128;8.520;2023-05-02T06:05:36;6.55;;;5.05;;
28427;SDS011;15662;49.128;8.520;2023-05-02T06:08:04;5.80;;;5.30;;
28427;SDS011;15662;49.128;8.520;2023-05-02T06:10:32;6.35;;;5.53;;
28427;SDS011;15662;49.128;8.520;2023-05-02T06:13:01;6.25;;;5.72;;
28427;SDS011;15662;49.128;8.520;2023-05-02T06:15:33;7.28;;;5.55;;
28427;SDS011;15662;49.128;8.520;2023-05-02T06:18:03;6.68;;;5.97;;
28427;SDS011;15662;49.128;8.520;2023-05-02T06:20:31;6.68;;;6.18;;
28427;SDS011;15662;49.128;8.520;2023-05-02T06:22:58;7.03;;;6.15;;
28427;SDS011;15662;49.128;8.520;2023-05-02T06:25:26;7.25;;;6.00;;
28427;SDS011;15662;49.128;8.520;2023-05-02T06:27:54;6.57;;;5.97;;
28427;SDS011;15662;49.128;8.520;2023-05-02T06:30:22;9.90;;;6.20;;
28427;SDS011;15662;49.128;8.520;2023-05-02T06:32:50;7.07;;;6.38;;
28427;SDS011;15662;49.128;8.520;2023-05-02T06:35:18;6.15;;;5.63;;
28427;SDS011;15662;49.128;8.520;2023-05-02T06:37:46;9.55;;;6.30;;
28427;SDS011;15662;49.128;8.520;2023-05-02T06:40:13;6.65;;;5.97;;
28427;SDS011;15662;49.128;8.520;2023-05-02T06:42:41;7.18;;;6.47;;
28427;SDS011;15662;49.128;8.520;2023-05-02T06:45:09;8.95;;;7.75;;
28427;SDS011;15662;49.128;8.520;2023-05-02T06:47:37;9.30;;;8.43;;
28427;SDS011;15662;49.128;8.520;2023-05-02T06:50:05;9.63;;;8.63;;
28427;SDS011;15662;49.128;8.520;2023-05-02T06:52:34;9.85;;;8.80;;
28427;SDS011;15662;49.128;8.520;2023-05-02T06:55:01;14.95;;;8.95;;
28427;SDS011;15662;49.128;8.520;2023-05-02T06:57:29;10.38;;;9.38;;
28427;SDS011;15662;49.128;8.520;2023-05-02T06:59:57;11.50;;;10.43;;
28427;SDS011;15662;49.128;8.520;2023-05-02T07:02:25;11.43;;;10.27;;
28427;SDS011;15662;49.128;8.520;2023-05-02T07:04:53;12.40;;;11.02;;
28427;SDS011;15662;49.128;8.520;2023-05-02T07:07:21;14.20;;;12.70;;
28427;SDS011;15662;49.128;8.520;2023-05-02T07:09:49;13.90;;;12.38;;
28427;SDS011;15662;49.128;8.520;2023-05-02T07:12:17;13.75;;;12.35;;
28427;SDS011;15662;49.128;8.520;2023-05-02T07:14:44;15.15;;;13.65;;
28427;SDS011;15662;49.128;8.520;2023-05-02T07:17:13;17.02;;;14.02;;
28427;SDS011;15662;49.128;8.520;2023-05-02T07:19:41;16.67;;;14.88;;
28427;SDS011;15662;49.128;8.520;2023-05-02T07:22:11;16.23;;;14.27;;
28427;SDS011;15662;49.128;8.520;2023-05-02T07:24:39;18.50;;;16.52;;
28427;SDS011;15662;49.128;8.520;2023-05-02T07:27:09;18.35;;;15.80;;
28427;SDS011;15662;49.128;8.520;2023-05-02T07:29:38;21.33;;;18.20;;
28427;SDS011;15662;49.128;8.520;2023-05-02T07:32:08;19.98;;;17.10;;
28427;SDS011;15662;49.128;8.520;2023-05-02T07:34:36;20.73;;;17.05;;
28427;SDS011;15662;49.128;8.520;2023-05-02T07:37:04;22.38;;;17.75;;
28427;SDS011;15662;49.128;8.520;2023-05-02T07:39:31;23.25;;;19.27;;
28427;SDS011;15662;49.128;8.520;2023-05-02T07:41:59;21.13;;;18.10;;
28427;SDS011;15662;49.128;8.520;2023-05-02T07:44:29;19.73;;;17.10;;
28427;SDS011;15662;49.128;8.520;2023-05-02T07:46:59;21.48;;;17.50;;
28427;SDS011;15662;49.128;8.520;2023-05-02T07:49:27;18.88;;;16.85;;
28427;SDS011;15662;49.128;8.520;2023-05-02T07:51:55;20.23;;;17.00;;
28427;SDS011;15662;49.128;8.520;2023-05-02T07:54:23;19.17;;;17.17;;
28427;SDS011;15662;49.128;8.520;2023-05-02T07:56:53;22.47;;;17.93;;
28427;SDS011;15662;49.128;8.520;2023-05-02T07:59:24;28.42;;;20.55;;
28427;SDS011;15662;49.128;8.520;2023-05-02T08:01:52;24.85;;;21.60;;
28427;SDS011;15662;49.128;8.520;2023-05-02T08:04:19;23.35;;;20.17;;
28427;SDS011;15662;49.128;8.520;2023-05-02T08:06:47;24.52;;;19.90;;
28427;SDS011;15662;49.128;8.520;2023-05-02T08:09:15;28.08;;;21.60;;
28427;SDS011;15662;49.128;8.520;2023-05-02T08:11:43;31.35;;;25.35;;
28427;SDS011;15662;49.128;8.520;2023-05-02T08:14:11;36.05;;;28.63;;
28427;SDS011;15662;49.128;8.520;2023-05-02T08:16:42;32.90;;;26.65;;
28427;SDS011;15662;49.128;8.520;2023-05-02T08:19:12;36.63;;;27.03;;
28427;SDS011;15662;49.128;8.520;2023-05-02T08:21:41;43.20;;;30.10;;
28427;SDS011;15662;49.128;8.520;2023-05-02T08:24:09;37.67;;;28.52;;
28427;SDS011;15662;49.128;8.520;2023-05-02T08:26:37;31.45;;;25.77;;
28427;SDS011;15662;49.128;8.520;2023-05-02T08:29:05;29.02;;;25.27;;
28427;SDS011;15662;49.128;8.520;2023-05-02T08:31:32;28.65;;;24.27;;
28427;SDS011;15662;49.128;8.520;2023-05-02T08:34:00;29.05;;;24.85;;
28427;SDS011;15662;49.128;8.520;2023-05-02T08:36:28;28.77;;;24.15;;
28427;SDS011;15662;49.128;8.520;2023-05-02T08:38:56;25.67;;;22.80;;
28427;SDS011;15662;49.128;8.520;2023-05-02T08:41:26;28.63;;;23.27;;
28427;SDS011;15662;49.128;8.520;2023-05-02T08:43:55;27.88;;;23.40;;
28427;SDS011;15662;49.128;8.520;2023-05-02T08:46:24;29.30;;;24.02;;
28427;SDS011;15662;49.128;8.520;2023-05-02T08:48:53;40.40;;;28.42;;
28427;SDS011;15662;49.128;8.520;2023-05-02T08:51:25;41.60;;;29.20;;
28427;SDS011;15662;49.128;8.520;2023-05-02T08:53:55;31.27;;;24.17;;
28427;SDS011;15662;49.128;8.520;2023-05-02T08:56:24;30.45;;;23.80;;
28427;SDS011;15662;49.128;8.520;2023-05-02T08:58:52;28.25;;;22.77;;
28427;SDS011;15662;49.128;8.520;2023-05-02T09:01:21;27.48;;;22.90;;
28427;SDS011;15662;49.128;8.520;2023-05-02T09:03:50;26.52;;;21.77;;
28427;SDS011;15662;49.128;8.520;2023-05-02T09:06:19;30.83;;;23.35;;
28427;SDS011;15662;49.128;8.520;2023-05-02T09:08:49;35.60;;;25.92;;
28427;SDS011;15662;49.128;8.520;2023-05-02T09:11:20;28.98;;;24.05;;
28427;SDS011;15662;49.128;8.520;2023-05-02T09:13:48;28.58;;;22.75;;
28427;SDS011;15662;49.128;8.520;2023-05-02T09:18:52;27.42;;;22.25;;
28427;SDS011;15662;49.128;8.520;2023-05-02T09:21:23;27.20;;;22.65;;
28427;SDS011;15662;49.128;8.520;2023-05-02T09:24:00;23.77;;;20.55;;
28427;SDS011;15662;49.128;8.520;2023-05-02T09:26:40;23.25;;;19.55;;
28427;SDS011;15662;49.128;8.520;2023-05-02T09:29:07;21.60;;;18.65;;
28427;SDS011;15662;49.128;8.520;2023-05-02T09:31:35;22.90;;;19.67;;
28427;SDS011;15662;49.128;8.520;2023-05-02T09:34:22;20.77;;;18.55;;
28427;SDS011;15662;49.128;8.520;2023-05-02T09:36:50;35.05;;;23.38;;
28427;SDS011;15662;49.128;8.520;2023-05-02T09:39:21;29.55;;;22.85;;
28427;SDS011;15662;49.128;8.520;2023-05-02T09:41:52;26.35;;;21.60;;
28427;SDS011;15662;49.128;8.520;2023-05-02T09:44:21;24.73;;;21.90;;
28427;SDS011;15662;49.128;8.520;2023-05-02T09:46:52;27.60;;;22.25;;
28427;SDS011;15662;49.128;8.520;2023-05-02T09:49:40;24.13;;;21.38;;
28427;SDS011;15662;49.128;8.520;2023-05-02T09:52:15;25.23;;;21.55;;
28427;SDS011;15662;49.128;8.520;2023-05-02T09:54:45;24.40;;;21.13;;
28427;SDS011;15662;49.128;8.520;2023-05-02T09:57:16;23.60;;;20.77;;
28427;SDS011;15662;49.128;8.520;2023-05-02T09:59:56;24.13;;;20.60;;
28427;SDS011;15662;49.128;8.520;2023-05-02T10:02:24;24.37;;;21.20;;
28427;SDS011;15662;49.128;8.520;2023-05-02T10:04:56;23.02;;;20.38;;
28427;SDS011;15662;49.128;8.520;2023-05-02T10:07:26;25.03;;;21.97;;
28427;SDS011;15662;49.128;8.520;2023-05-02T10:09:54;24.70;;;21.50;;
28427;SDS011;15662;49.128;8.520;2023-05-02T10:12:25;26.67;;;21.33;;
28427;SDS011;15662;49.128;8.520;2023-05-02T10:14:58;22.40;;;18.67;;
28427;SDS011;15662;49.128;8.520;2023-05-02T10:17:30;22.60;;;19.75;;
28427;SDS011;15662;49.128;8.520;2023-05-02T10:20:06;23.52;;;20.50;;
28427;SDS011;15662;49.128;8.520;2023-05-02T10:22:37;34.67;;;25.83;;
28427;SDS011;15662;49.128;8.520;2023-05-02T10:25:06;37.35;;;25.38;;
28427;SDS011;15662;49.128;8.520;2023-05-02T10:27:35;25.65;;;21.52;;
28427;SDS011;15662;49.128;8.520;2023-05-02T10:30:03;33.22;;;22.55;;
28427;SDS011;15662;49.128;8.520;2023-05-02T10:32:33;36.40;;;25.05;;
28427;SDS011;15662;49.128;8.520;2023-05-02T10:35:04;20.25;;;16.70;;
28427;SDS011;15662;49.128;8.520;2023-05-02T10:37:35;16.83;;;14.95;;
28427;SDS011;15662;49.128;8.520;2023-05-02T10:40:04;21.05;;;16.33;;
28427;SDS011;15662;49.128;8.520;2023-05-02T10:42:37;45.28;;;25.75;;
28427;SDS011;15662;49.128;8.520;2023-05-02T10:45:12;35.05;;;21.40;;
28427;SDS011;15662;49.128;8.520;2023-05-02T10:50:53;16.15;;;13.68;;
28427;SDS011;15662;49.128;8.520;2023-05-02T10:53:24;17.35;;;14.43;;
28427;SDS011;15662;49.128;8.520;2023-05-02T10:56:19;17.38;;;13.43;;
28427;SDS011;15662;49.128;8.520;2023-05-02T10:58:48;23.98;;;16.15;;
28427;SDS011;15662;49.128;8.520;2023-05-02T11:04:06;34.58;;;21.35;;
28427;SDS011;15662;49.128;8.520;2023-05-02T11:06:36;22.23;;;16.90;;
28427;SDS011;15662;49.128;8.520;2023-05-02T11:11:56;17.08;;;15.07;;
28427;SDS011;15662;49.128;8.520;2023-05-02T11:24:46;16.67;;;14.23;;
28427;SDS011;15662;49.128;8.520;2023-05-02T11:30:00;15.57;;;12.80;;
28427;SDS011;15662;49.128;8.520;2023-05-02T11:35:22;15.57;;;12.85;;
28427;SDS011;15662;49.128;8.520;2023-05-02T11:37:59;15.57;;;12.35;;
28427;SDS011;15662;49.128;8.520;2023-05-02T11:40:32;15.25;;;12.25;;
28427;SDS011;15662;49.128;8.520;2023-05-02T11:43:03;16.58;;;12.10;;
28427;SDS011;15662;49.128;8.520;2023-05-02T11:45:44;12.77;;;11.35;;
28427;SDS011;15662;49.128;8.520;2023-05-02T11:48:13;13.10;;;10.65;;
28427;SDS011;15662;49.128;8.520;2023-05-02T11:50:44;13.18;;;10.65;;
28427;SDS011;15662;49.128;8.520;2023-05-02T11:53:22;13.30;;;11.25;;
28427;SDS011;15662;49.128;8.520;2023-05-02T11:55:53;13.40;;;10.80;;
28427;SDS011;15662;49.128;8.520;2023-05-02T11:58:39;12.93;;;10.50;;
28427;SDS011;15662;49.128;8.520;2023-05-02T12:01:10;14.63;;;10.90;;
28427;SDS011;15662;49.128;8.520;2023-05-02T12:03:43;12.35;;;10.48;;
28427;SDS011;15662;49.128;8.520;2023-05-02T12:06:12;15.25;;;10.48;;
28427;SDS011;15662;49.128;8.520;2023-05-02T12:08:42;12.57;;;11.27;;
28427;SDS011;15662;49.128;8.520;2023-05-02T12:11:14;11.60;;;10.10;;
28427;SDS011;15662;49.128;8.520;2023-05-02T12:13:46;10.40;;;9.25;;
28427;SDS011;15662;49.128;8.520;2023-05-02T12:16:16;10.35;;;9.15;;
28427;SDS011;15662;49.128;8.520;2023-05-02T12:18:46;10.70;;;9.05;;
28427;SDS011;15662;49.128;8.520;2023-05-02T12:21:14;11.13;;;8.90;;
28427;SDS011;15662;49.128;8.520;2023-05-02T12:23:43;10.07;;;8.93;;
28427;SDS011;15662;49.128;8.520;2023-05-02T12:26:29;10.30;;;8.80;;
28427;SDS011;15662;49.128;8.520;2023-05-02T12:28:59;9.30;;;8.32;;
28427;SDS011;15662;49.128;8.520;2023-05-02T12:31:28;10.48;;;9.25;;
28427;SDS011;15662;49.128;8.520;2023-05-02T12:33:58;11.35;;;9.32;;
28427;SDS011;15662;49.128;8.520;2023-05-02T12:36:27;11.02;;;9.00;;
28427;SDS011;15662;49.128;8.520;2023-05-02T12:38:59;12.93;;;9.50;;
28427;SDS011;15662;49.128;8.520;2023-05-02T12:41:32;11.90;;;8.32;;
28427;SDS011;15662;49.128;8.520;2023-05-02T12:44:03;10.02;;;8.43;;
28427;SDS011;15662;49.128;8.520;2023-05-02T12:46:34;11.35;;;8.43;;
28427;SDS011;15662;49.128;8.520;2023-05-02T12:49:03;9.85;;;8.43;;
28427;SDS011;15662;49.128;8.520;2023-05-02T12:51:36;10.98;;;8.65;;
28427;SDS011;15662;49.128;8.520;2023-05-02T12:54:06;9.57;;;7.75;;
28427;SDS011;15662;49.128;8.520;2023-05-02T12:56:40;8.75;;;7.85;;
28427;SDS011;15662;49.128;8.520;2023-05-02T12:59:10;8.90;;;7.07;;
28427;SDS011;15662;49.128;8.520;2023-05-02T13:01:56;6.72;;;6.05;;
28427;SDS011;15662;49.128;8.520;2023-05-02T13:07:07;7.15;;;6.40;;
28427;SDS011;15662;49.128;8.520;2023-05-02T13:09:35;7.10;;;6.40;;
28427;SDS011;15662;49.128;8.520;2023-05-02T13:12:03;6.85;;;6.13;;
28427;SDS011;15662;49.128;8.520;2023-05-02T13:14:32;7.45;;;6.18;;
28427;SDS011;15662;49.128;8.520;2023-05-02T13:17:00;5.55;;;5.03;;
28427;SDS011;15662;49.128;8.520;2023-05-02T13:19:27;6.05;;;5.25;;
28427;SDS011;15662;49.128;8.520;2023-05-02T13:21:57;5.70;;;5.15;;
28427;SDS011;15662;49.128;8.520;2023-05-02T13:24:25;5.05;;;4.53;;
28427;SDS011;15662;49.128;8.520;2023-05-02T13:26:53;4.70;;;4.13;;
28427;SDS011;15662;49.128;8.520;2023-05-02T13:29:21;5.80;;;4.70;;
28427;SDS011;15662;49.128;8.520;2023-05-02T13:31:49;5.70;;;4.78;;
28427;SDS011;15662;49.128;8.520;2023-05-02T13:34:17;4.78;;;4.30;;
28427;SDS011;15662;49.128;8.520;2023-05-02T13:36:45;5.68;;;4.80;;
28427;SDS011;15662;49.128;8.520;2023-05-02T13:39:12;5.68;;;4.32;;
28427;SDS011;15662;49.128;8.520;2023-05-02T13:41:40;4.95;;;3.85;;
28427;SDS011;15662;49.128;8.520;2023-05-02T13:44:08;4.93;;;4.05;;
28427;SDS011;15662;49.128;8.520;2023-05-02T13:46:36;4.30;;;3.90;;
28427;SDS011;15662;49.128;8.520;2023-05-02T13:49:04;6.05;;;3.75;;
28427;SDS011;15662;49.128;8.520;2023-05-02T13:51:32;4.65;;;3.70;;
28427;SDS011;15662;49.128;8.520;2023-05-02T13:54:00;4.07;;;3.67;;
28427;SDS011;15662;49.128;8.520;2023-05-02T13:56:29;4.07;;;3.60;;
28427;SDS011;15662;49.128;8.520;2023-05-02T13:58:56;3.58;;;3.15;;
28427;SDS011;15662;49.128;8.520;2023-05-02T14:01:24;4.05;;;3.30;;
28427;SDS011;15662;49.128;8.520;2023-05-02T14:03:54;3.92;;;2.80;;
28427;SDS011;15662;49.128;8.520;2023-05-02T14:06:22;4.47;;;3.85;;
28427;SDS011;15662;49.128;8.520;2023-05-02T14:08:50;4.95;;;4.22;;
28427;SDS011;15662;49.128;8.520;2023-05-02T14:11:17;6.78;;;4.38;;
28427;SDS011;15662;49.128;8.520;2023-05-02T14:13:45;4.93;;;4.43;;
28427;SDS011;15662;49.128;8.520;2023-05-02T14:16:13;3.92;;;3.58;;
28427;SDS011;15662;49.128;8.520;2023-05-02T14:18:41;5.40;;;3.60;;
28427;SDS011;15662;49.128;8.520;2023-05-02T14:21:09;4.63;;;3.08;;
28427;SDS011;15662;49.128;8.520;2023-05-02T14:23:37;4.68;;;3.47;;
28427;SDS011;15662;49.128;8.520;2023-05-02T14:26:05;7.55;;;6.28;;
28427;SDS011;15662;49.128;8.520;2023-05-02T14:28:32;4.68;;;4.18;;
28427;SDS011;15662;49.128;8.520;2023-05-02T14:31:00;3.85;;;3.45;;
28427;SDS011;15662;49.128;8.520;2023-05-02T14:33:28;3.22;;;2.75;;
28427;SDS011;15662;49.128;8.520;2023-05-02T14:35:56;3.42;;;3.13;;
28427;SDS011;15662;49.128;8.520;2023-05-02T14:38:24;3.25;;;2.95;;
28427;SDS011;15662;49.128;8.520;2023-05-02T14:40:51;2.90;;;2.28;;
28427;SDS011;15662;49.128;8.520;2023-05-02T14:43:19;2.10;;;2.00;;
28427;SDS011;15662;49.128;8.520;2023-05-02T14:45:47;2.00;;;1.90;;
28427;SDS011;15662;49.128;8.520;2023-05-02T14:48:15;2.95;;;2.40;;
28427;SDS011;15662;49.128;8.520;2023-05-02T14:50:43;2.88;;;2.17;;
28427;SDS011;15662;49.128;8.520;2023-05-02T14:53:11;2.22;;;2.03;;
28427;SDS011;15662;49.128;8.520;2023-05-02T14:55:38;2.15;;;2.05;;
28427;SDS011;15662;49.128;8.520;2023-05-02T14:58:07;2.40;;;2.20;;
28427;SDS011;15662;49.128;8.520;2023-05-02T15:00:36;2.13;;;1.92;;
28427;SDS011;15662;49.128;8.520;2023-05-02T15:03:05;24.65;;;14.02;;
28427;SDS011;15662;49.128;8.520;2023-05-02T15:05:36;7.50;;;5.10;;
28427;SDS011;15662;49.128;8.520;2023-05-02T15:08:05;3.17;;;2.88;;
28427;SDS011;15662;49.128;8.520;2023-05-02T15:10:36;3.20;;;2.63;;
28427;SDS011;15662;49.128;8.520;2023-05-02T15:13:05;2.75;;;2.55;;
28427;SDS011;15662;49.128;8.520;2023-05-02T15:15:34;2.65;;;2.45;;
28427;SDS011;15662;49.128;8.520;2023-05-02T15:18:03;3.85;;;3.42;;
28427;SDS011;15662;49.128;8.520;2023-05-02T15:20:31;2.83;;;2.63;;
28427;SDS011;15662;49.128;8.520;2023-05-02T15:22:59;2.13;;;1.92;;
28427;SDS011;15662;49.128;8.520;2023-05-02T15:25:29;3.13;;;2.85;;
28427;SDS011;15662;49.128;8.520;2023-05-02T15:27:57;3.20;;;2.80;;
28427;SDS011;15662;49.128;8.520;2023-05-02T15:30:25;4.40;;;2.25;;
28427;SDS011;15662;49.128;8.520;2023-05-02T15:32:53;3.28;;;2.92;;
28427;SDS011;15662;49.128;8.520;2023-05-02T15:35:21;5.88;;;4.82;;
28427;SDS011;15662;49.128;8.520;2023-05-02T15:37:49;4.20;;;3.42;;
28427;SDS011;15662;49.128;8.520;2023-05-02T15:40:17;7.65;;;6.32;;